Time;durP1;ratioP1;P1;durP2;ratioP2;P2;SDS_P1;SDS_P2;PMS_P1;PMS_P2;Temp;Humidity;BMP_temperature;BMP_pressure;BME280_temperature;BME280_humidity;BME280_pressure;Samples;Min_cycle;Max_cycle;Signal;HPM_P1;HPM_P2
2022/04/21 00:00:08;;;;;;;5.90;3.47;;;;;;;8.65;80.06;100990.34;5024312;28;20317;-53
2022/04/21 00:02:36;;;;;;;3.73;2.97;;;;;;;8.64;79.85;100984.22;5025516;28;20322;-52
2022/04/21 00:05:03;;;;;;;3.93;3.00;;;;;;;8.66;79.58;100994.69;5024487;28;20257;-52
2022/04/21 00:07:29;;;;;;;7.67;3.33;;;;;;;8.71;79.79;100990.41;5024915;28;20233;-52
2022/04/21 00:09:56;;;;;;;5.40;3.30;;;;;;;8.70;79.69;100983.41;5024097;28;20237;-52
2022/04/21 00:12:22;;;;;;;5.47;3.50;;;;;;;8.65;79.66;100992.97;5024907;28;20271;-53
2022/04/21 00:14:48;;;;;;;5.13;3.77;;;;;;;8.59;80.13;100997.25;5022528;28;20237;-52
2022/04/21 00:17:15;;;;;;;6.37;3.97;;;;;;;8.50;80.01;100997.16;5019511;28;20224;-53
2022/04/21 00:19:43;;;;;;;11.00;3.37;;;;;;;8.47;80.74;100991.88;5009014;28;20652;-53
2022/04/21 00:24:53;;;;;;;5.80;3.63;;;;;;;8.52;81.05;100984.94;5024349;28;20610;-53
2022/04/21 00:27:19;;;;;;;6.57;3.80;;;;;;;8.59;80.72;100992.00;5025106;28;20298;-52
2022/04/21 00:29:45;;;;;;;9.10;3.50;;;;;;;8.50;81.31;100980.59;5024411;28;20283;-52
2022/04/21 00:32:13;;;;;;;6.20;4.17;;;;;;;8.56;81.09;100992.00;5021538;28;20314;-54
2022/04/21 00:34:39;;;;;;;4.63;3.33;;;;;;;8.52;81.28;100995.41;5025161;28;20264;-53
2022/04/21 00:37:07;;;;;;;4.90;3.47;;;;;;;8.57;81.34;100988.53;5016953;28;20726;-53
2022/04/21 00:39:33;;;;;;;4.53;3.47;;;;;;;8.54;81.02;100983.25;5023781;28;20635;-53
2022/04/21 00:42:00;;;;;;;7.43;4.30;;;;;;;8.63;81.16;100990.31;5024332;28;20299;-53
2022/04/21 00:44:27;;;;;;;3.73;2.90;;;;;;;8.65;81.45;100985.09;5023611;28;20257;-53
2022/04/21 00:46:55;;;;;;;8.93;4.27;;;;;;;8.59;81.51;100989.41;5026468;28;20631;-53
2022/04/21 00:49:22;;;;;;;6.00;3.17;;;;;;;8.56;81.97;100992.00;5027551;28;20240;-53
2022/04/21 00:51:49;;;;;;;6.33;3.87;;;;;;;8.49;82.14;100990.16;5027995;28;20243;-53
2022/04/21 00:54:17;;;;;;;6.13;3.40;;;;;;;8.52;82.28;100984.94;5028936;28;20233;-53
2022/04/21 00:56:44;;;;;;;5.80;2.90;;;;;;;8.47;82.53;100975.31;5029032;28;20240;-54
2022/04/21 00:59:11;;;;;;;5.27;3.40;;;;;;;8.39;83.15;100967.38;5028537;28;20233;-53
2022/04/21 01:04:22;;;;;;;6.93;4.83;;;;;;;8.45;84.51;100975.28;5047798;28;20378;-53
2022/04/21 01:06:49;;;;;;;9.60;4.13;;;;;;;8.32;85.22;100971.63;5019770;28;20240;-53
2022/04/21 01:09:16;;;;;;;8.67;3.90;;;;;;;8.36;85.47;100972.53;5026963;28;20503;-54
2022/04/21 01:11:43;;;;;;;6.73;3.57;;;;;;;8.33;85.71;100962.91;5028271;28;20256;-53
2022/04/21 01:14:11;;;;;;;4.60;3.87;;;;;;;8.21;86.38;100956.66;5028652;28;20225;-53
2022/04/21 01:16:38;;;;;;;5.77;3.53;;;;;;;8.16;87.02;100953.97;5028474;28;20239;-53
2022/04/21 01:19:04;;;;;;;5.43;3.60;;;;;;;8.15;87.40;100953.97;5026768;28;20232;-51
2022/04/21 01:21:32;;;;;;;6.37;3.60;;;;;;;8.15;87.52;100944.38;5027446;28;20278;-52
2022/04/21 01:23:58;;;;;;;5.53;3.53;;;;;;;8.17;87.74;100941.78;5027911;28;20565;-53
2022/04/21 01:26:35;;;;;;;5.17;3.60;;;;;;;8.12;88.26;100946.97;5026755;28;20614;-53
2022/04/21 01:29:02;;;;;;;6.00;4.27;;;;;;;8.19;87.83;100947.91;5026399;28;20651;-53
2022/04/21 01:31:28;;;;;;;4.83;3.53;;;;;;;8.10;87.96;100944.31;5017822;28;20236;-53
2022/04/21 01:33:55;;;;;;;5.33;3.87;;;;;;;8.04;88.53;100948.63;5027701;28;20268;-52
2022/04/21 01:36:21;;;;;;;5.43;3.10;;;;;;;7.95;88.79;100957.19;5027524;28;20274;-53
2022/04/21 01:41:33;;;;;;;3.93;3.50;;;;;;;7.81;90.70;100963.97;5027777;28;20239;-53
2022/04/21 01:43:59;;;;;;;5.93;3.67;;;;;;;7.84;90.85;100966.63;5026779;28;20271;-53
2022/04/21 01:46:26;;;;;;;5.37;3.40;;;;;;;7.87;90.99;100964.06;5026982;28;20674;-54
2022/04/21 01:48:52;;;;;;;5.97;4.30;;;;;;;7.93;89.90;100951.06;5025987;28;20236;-54
2022/04/21 01:51:18;;;;;;;5.20;3.03;;;;;;;7.93;90.18;100951.06;5027519;28;20228;-54
2022/04/21 01:53:45;;;;;;;4.13;2.63;;;;;;;7.93;90.45;100951.06;5027246;28;20710;-54
2022/04/21 01:56:12;;;;;;;8.73;4.13;;;;;;;7.88;90.28;100957.97;5027484;28;20671;-56
2022/04/21 01:58:39;;;;;;;5.63;3.60;;;;;;;7.98;91.91;100951.13;5027438;28;20256;-53
2022/04/21 02:01:05;;;;;;;6.17;3.27;;;;;;;8.06;89.66;100950.38;5027716;28;20251;-53
2022/04/21 02:03:32;;;;;;;6.40;3.73;;;;;;;7.98;89.57;100941.56;5027754;28;20240;-53
2022/04/21 02:05:58;;;;;;;5.90;2.93;;;;;;;8.01;90.03;100943.34;5026770;28;20245;-53
2022/04/21 02:08:26;;;;;;;7.63;4.07;;;;;;;7.87;91.07;100940.53;5026750;28;20330;-52
2022/04/21 02:10:53;;;;;;;5.17;3.83;;;;;;;7.87;91.72;100940.53;5026486;28;20534;-52
2022/04/21 02:13:21;;;;;;;3.27;2.97;;;;;;;7.81;91.89;100945.69;5027420;28;20310;-52
2022/04/21 02:15:47;;;;;;;7.83;3.77;;;;;;;7.84;93.09;100943.13;5026299;28;20267;-52
2022/04/21 02:18:14;;;;;;;9.30;3.83;;;;;;;7.87;93.55;100930.97;5026131;28;20245;-52
2022/04/21 02:20:40;;;;;;;7.03;4.17;;;;;;;7.94;94.13;100931.91;5026754;28;20245;-54
2022/04/21 02:23:07;;;;;;;7.07;3.97;;;;;;;7.89;94.36;100941.44;5022747;28;20579;-53
2022/04/21 02:25:33;;;;;;;9.10;3.97;;;;;;;7.84;94.81;100936.16;5026003;28;20297;-52
2022/04/21 02:27:59;;;;;;;4.40;3.23;;;;;;;7.80;94.84;100938.72;5026621;28;20229;-53
2022/04/21 02:30:27;;;;;;;4.10;3.80;;;;;;;7.79;94.70;100936.94;5025884;28;20768;-52
2022/04/21 02:32:54;;;;;;;7.93;4.70;;;;;;;7.72;95.00;100927.25;5026243;28;20310;-52
2022/04/21 02:35:20;;;;;;;6.53;3.50;;;;;;;7.74;95.74;100929.03;5023987;28;20237;-53
2022/04/21 02:37:47;;;;;;;7.27;4.20;;;;;;;7.77;95.82;100918.63;5026081;28;20530;-53
2022/04/21 02:40:15;;;;;;;7.77;4.60;;;;;;;7.76;95.42;100926.47;5025071;28;20313;-55
2022/04/21 02:42:41;;;;;;;6.70;4.43;;;;;;;7.82;95.23;100910.84;5027404;28;20236;-53
2022/04/21 02:45:09;;;;;;;5.83;3.57;;;;;;;7.83;94.56;100912.63;5007158;28;20260;-53
2022/04/21 02:47:37;;;;;;;6.03;3.60;;;;;;;7.93;94.27;100917.06;5025647;28;20630;-54
2022/04/21 02:50:04;;;;;;;7.23;3.53;;;;;;;7.82;94.26;100910.84;5026116;28;20228;-52
2022/04/21 02:52:31;;;;;;;5.73;3.60;;;;;;;7.95;94.39;100912.75;5026646;28;20240;-53
2022/04/21 02:57:43;;;;;;;10.57;3.60;;;;;;;7.72;94.52;100909.84;5026899;28;20244;-53
2022/04/21 03:00:11;;;;;;;7.33;4.60;;;;;;;7.80;95.07;100909.97;5025181;28;20237;-53
2022/04/21 03:02:38;;;;;;;4.37;3.97;;;;;;;7.77;95.24;100908.16;5025622;28;20228;-53
2022/04/21 03:05:06;;;;;;;5.80;4.07;;;;;;;7.71;95.37;100917.66;5025340;28;20244;-53
2022/04/21 03:07:32;;;;;;;5.27;4.07;;;;;;;7.66;96.24;100909.78;5025671;28;20267;-53
2022/04/21 03:09:59;;;;;;;6.50;4.50;;;;;;;7.74;95.76;100928.16;5024922;28;20268;-52
2022/04/21 03:12:28;;;;;;;5.83;4.07;;;;;;;7.74;95.54;100925.53;5025922;28;20239;-53
2022/04/21 03:14:57;;;;;;;6.67;4.17;;;;;;;7.71;95.75;100920.28;5025163;28;20609;-52
2022/04/21 03:17:23;;;;;;;6.57;4.23;;;;;;;7.75;95.90;100922.06;5025568;28;20236;-53
2022/04/21 03:19:52;;;;;;;5.07;4.30;;;;;;;7.68;95.45;100922.84;5024862;28;20236;-53
2022/04/21 03:25:03;;;;;;;4.43;4.07;;;;;;;7.74;96.07;100909.88;5025819;28;20247;-53
2022/04/21 03:27:29;;;;;;;4.93;3.90;;;;;;;7.71;95.81;100920.28;5025958;28;20228;-53
2022/04/21 03:29:55;;;;;;;8.27;4.00;;;;;;;7.70;95.89;100916.78;5024871;28;20240;-53
2022/04/21 03:32:22;;;;;;;7.77;4.57;;;;;;;7.68;96.29;100908.03;5025090;28;20788;-52
2022/04/21 03:34:48;;;;;;;6.60;3.83;;;;;;;7.63;96.62;100914.94;5025801;28;20240;-53
2022/04/21 03:37:18;;;;;;;7.13;4.43;;;;;;;7.77;96.40;100907.28;5025716;28;20718;-53
2022/04/21 03:39:44;;;;;;;7.03;4.80;;;;;;;7.83;95.65;100915.22;5025074;28;20237;-54
2022/04/21 03:42:18;;;;;;;6.33;4.07;;;;;;;7.79;95.72;100916.94;5025973;28;20232;-52
2022/04/21 03:44:45;;;;;;;11.10;4.30;;;;;;;7.78;95.93;100914.28;5025685;28;20241;-52
2022/04/21 03:47:11;;;;;;;5.33;4.17;;;;;;;7.80;95.79;100923.03;5026503;28;20310;-53
2022/04/21 03:49:37;;;;;;;9.13;4.00;;;;;;;7.80;95.95;100917.81;5025666;28;20240;-53
2022/04/21 03:52:05;;;;;;;10.00;4.90;;;;;;;7.73;95.89;100926.41;5025616;28;20236;-53
2022/04/21 03:54:33;;;;;;;6.63;4.70;;;;;;;7.72;96.54;100929.88;5026205;28;20243;-53
2022/04/21 03:56:59;;;;;;;4.73;3.67;;;;;;;7.70;97.03;100934.22;5025870;28;20236;-53
2022/04/21 03:59:26;;;;;;;7.63;5.20;;;;;;;7.80;96.33;100933.47;5024200;28;20264;-52
2022/04/21 04:01:52;;;;;;;7.73;4.17;;;;;;;7.84;96.10;100935.28;5025891;28;20528;-53
2022/04/21 04:04:18;;;;;;;4.40;4.00;;;;;;;7.76;96.62;100936.91;5025861;28;20240;-54
2022/04/21 04:12:15;;;;;;;6.13;4.60;;;;;;;7.80;96.20;100938.72;5025028;28;20255;-53
2022/04/21 04:14:41;;;;;;;6.73;4.03;;;;;;;7.73;96.56;100939.47;5024919;28;20294;-52
2022/04/21 04:17:08;;;;;;;9.33;4.90;;;;;;;7.63;96.98;100941.09;5026307;28;20612;-53
2022/04/21 04:19:36;;;;;;;7.80;4.57;;;;;;;7.58;97.80;100943.63;5022107;28;20244;-53
2022/04/21 04:22:03;;;;;;;4.60;4.00;;;;;;;7.67;98.00;100948.09;5009866;28;20241;-52
2022/04/21 04:24:29;;;;;;;5.43;4.77;;;;;;;7.66;97.64;100943.75;5019597;28;20239;-54
2022/04/21 04:26:56;;;;;;;6.07;3.90;;;;;;;7.78;98.87;100938.66;5028016;28;20264;-53
2022/04/21 04:29:24;;;;;;;7.97;4.67;;;;;;;7.69;97.72;100940.25;5017155;28;20567;-53
2022/04/21 04:31:52;;;;;;;6.97;4.17;;;;;;;7.71;97.46;100949.03;5026424;28;20237;-53
2022/04/21 04:34:18;;;;;;;7.77;4.60;;;;;;;7.65;98.44;100945.47;5011432;28;20320;-53
2022/04/21 04:36:46;;;;;;;7.30;4.73;;;;;;;7.69;98.20;100945.50;5016788;28;20267;-53
2022/04/21 04:39:12;;;;;;;7.37;4.80;;;;;;;7.73;97.82;100942.09;5028213;28;20236;-55
2022/04/21 04:44:24;;;;;;;7.37;4.57;;;;;;;7.77;98.13;100949.13;5028543;28;20282;-53
2022/04/21 04:46:49;;;;;;;6.67;4.93;;;;;;;7.73;98.96;100952.56;5028429;28;20272;-53
2022/04/21 04:49:16;;;;;;;8.57;5.13;;;;;;;7.69;99.12;100955.94;5028173;28;20256;-53
2022/04/21 04:51:42;;;;;;;12.97;6.03;;;;;;;7.62;99.81;100955.88;5028845;28;20652;-55
2022/04/21 04:54:11;;;;;;;10.87;5.83;;;;;;;7.59;100.00;100954.97;5029067;28;20237;-54
2022/04/21 04:56:38;;;;;;;6.87;4.50;;;;;;;7.60;100.00;100952.34;5027985;28;20259;-53
2022/04/21 04:59:05;;;;;;;10.70;5.50;;;;;;;7.55;100.00;100956.66;5026809;28;20240;-54
2022/04/21 05:01:34;;;;;;;8.30;5.77;;;;;;;7.58;100.00;100954.09;5028038;28;20232;-53
2022/04/21 05:04:04;;;;;;;12.07;6.10;;;;;;;7.55;100.00;100959.25;5027958;28;20236;-54
2022/04/21 05:06:34;;;;;;;8.43;5.40;;;;;;;7.55;100.00;100968.84;5027623;28;20294;-53
2022/04/21 05:09:01;;;;;;;7.77;4.27;;;;;;;7.61;100.00;100966.28;5027553;28;20232;-53
2022/04/21 05:11:27;;;;;;;5.17;4.40;;;;;;;7.65;100.00;100969.00;5027156;28;20239;-53
2022/04/21 05:13:54;;;;;;;5.27;4.00;;;;;;;7.69;100.00;100977.75;5022596;28;20233;-53
2022/04/21 05:16:21;;;;;;;8.37;4.47;;;;;;;7.66;100.00;100972.50;5025891;28;20563;-52
2022/04/21 05:18:49;;;;;;;6.77;5.17;;;;;;;7.64;100.00;100969.84;5026893;28;20228;-53
2022/04/21 05:21:16;;;;;;;7.93;5.13;;;;;;;7.64;100.00;100975.06;5027499;28;20228;-53
2022/04/21 05:23:46;;;;;;;7.10;4.50;;;;;;;7.64;100.00;100964.59;5026472;28;20239;-54
2022/04/21 05:26:12;;;;;;;5.40;4.60;;;;;;;7.63;100.00;100973.31;5027997;28;20332;-53
2022/04/21 05:28:39;;;;;;;6.67;5.97;;;;;;;7.60;100.00;100973.25;5027119;28;20444;-53
2022/04/21 05:31:06;;;;;;;5.67;4.80;;;;;;;7.63;100.00;100978.53;5027502;28;20694;-53
2022/04/21 05:33:35;;;;;;;11.53;5.37;;;;;;;7.58;100.00;100977.59;5027103;28;20240;-52
2022/04/21 05:36:03;;;;;;;6.50;4.43;;;;;;;7.60;100.00;100982.84;5027850;28;20671;-53
2022/04/21 05:38:30;;;;;;;10.23;5.27;;;;;;;7.69;100.00;100976.84;5026646;28;20299;-54
2022/04/21 05:40:58;;;;;;;7.17;4.90;;;;;;;7.68;100.00;100969.88;5026761;28;20247;-52
2022/04/21 05:43:30;;;;;;;9.40;5.30;;;;;;;7.72;100.00;100971.69;5026873;28;20236;-53
2022/04/21 05:45:58;;;;;;;8.50;4.90;;;;;;;7.68;100.00;100969.88;5027374;28;20240;-53
2022/04/21 05:48:24;;;;;;;14.87;5.67;;;;;;;7.81;100.00;100962.25;5026075;28;20240;-53
2022/04/21 05:50:53;;;;;;;10.23;5.70;;;;;;;7.81;100.00;100970.09;5028313;28;20232;-53
2022/04/21 05:53:22;;;;;;;9.60;4.63;;;;;;;7.82;100.00;100957.88;5027819;28;20240;-52
2022/04/21 05:55:50;;;;;;;10.20;5.47;;;;;;;7.81;100.00;100959.63;5026632;28;20310;-53
2022/04/21 05:58:16;;;;;;;7.20;5.10;;;;;;;7.76;100.00;100965.66;5026949;28;20228;-53
2022/04/21 06:00:43;;;;;;;7.77;5.77;;;;;;;7.75;100.00;100958.66;5027452;28;20327;-53
2022/04/21 06:03:11;;;;;;;8.13;5.07;;;;;;;7.72;100.00;100961.22;5027453;28;20290;-54
2022/04/21 06:05:37;;;;;;;6.47;4.80;;;;;;;7.83;100.00;100964.88;5026997;28;20243;-53
2022/04/21 06:08:05;;;;;;;8.33;5.43;;;;;;;7.80;100.00;100951.78;5026252;28;26103;-52
2022/04/21 06:10:33;;;;;;;7.80;5.67;;;;;;;7.88;100.00;100957.97;5021704;28;20250;-53
2022/04/21 06:13:01;;;;;;;11.97;5.80;;;;;;;7.97;100.00;100941.50;5026669;28;20271;-53
2022/04/21 06:15:30;;;;;;;7.17;4.83;;;;;;;7.98;100.00;100949.41;5025534;28;20278;-53
2022/04/21 06:17:57;;;;;;;11.23;5.53;;;;;;;7.95;100.00;100953.72;5021376;28;21577;-52
2022/04/21 06:20:23;;;;;;;8.93;4.57;;;;;;;7.90;100.00;100945.81;5026486;28;20643;-52
2022/04/21 06:22:49;;;;;;;10.80;5.00;;;;;;;7.89;100.00;100933.59;5014088;28;20233;-54
2022/04/21 06:25:16;;;;;;;6.73;4.53;;;;;;;7.88;100.00;100939.69;5007329;28;20245;-54
2022/04/21 06:27:43;;;;;;;4.70;3.97;;;;;;;7.94;100.00;100937.16;5027928;28;20663;-53
2022/04/21 06:30:10;;;;;;;9.00;4.50;;;;;;;8.00;100.00;100937.25;5021957;28;20253;-53
2022/04/21 06:32:36;;;;;;;8.33;4.47;;;;;;;8.01;100.00;100938.13;5026291;28;20225;-52
2022/04/21 06:35:03;;;;;;;9.53;4.97;;;;;;;7.96;100.00;100935.41;5026071;28;20240;-52
2022/04/21 06:37:30;;;;;;;9.43;4.80;;;;;;;8.02;100.00;100930.28;5026413;28;20236;-53
2022/04/21 06:39:57;;;;;;;6.60;4.00;;;;;;;8.15;100.00;100936.53;5024611;28;20252;-54
2022/04/21 06:42:23;;;;;;;5.53;4.23;;;;;;;8.21;100.00;100935.72;5025975;28;20237;-54
2022/04/21 06:50:19;;;;;;;8.47;5.60;;;;;;;8.36;100.00;100946.38;5025856;28;20235;-53
2022/04/21 06:52:45;;;;;;;5.67;4.80;;;;;;;8.41;100.00;100946.47;5026519;28;20260;-53
2022/04/21 06:55:11;;;;;;;7.83;4.80;;;;;;;8.49;100.00;100947.41;5026614;28;20245;-53
2022/04/21 06:57:38;;;;;;;5.07;4.57;;;;;;;8.42;99.77;100954.31;5026550;28;20228;-53
2022/04/21 07:00:07;;;;;;;5.63;4.37;;;;;;;8.53;99.46;100964.88;5025697;28;21384;-53
2022/04/21 07:02:37;;;;;;;5.87;3.93;;;;;;;8.56;98.83;100960.59;5025482;28;20584;-53
2022/04/21 07:05:04;;;;;;;10.07;4.13;;;;;;;8.60;98.40;100959.75;5012592;28;20316;-53
2022/04/21 07:07:30;;;;;;;8.57;4.33;;;;;;;8.64;98.36;100965.03;5010185;28;20229;-53
2022/04/21 07:09:57;;;;;;;8.13;4.57;;;;;;;8.65;98.03;100964.16;5014814;28;20718;-53
2022/04/21 07:12:26;;;;;;;8.37;5.20;;;;;;;8.68;97.32;100970.31;5025543;28;20235;-52
2022/04/21 07:14:52;;;;;;;5.50;4.83;;;;;;;8.81;96.44;100961.72;5024748;28;20557;-54
2022/04/21 07:17:20;;;;;;;7.87;5.47;;;;;;;8.82;96.37;100965.22;5024711;28;20228;-52
2022/04/21 07:19:48;;;;;;;9.30;5.07;;;;;;;8.75;96.59;100966.91;5018419;28;20251;-53
2022/04/21 07:22:14;;;;;;;7.07;5.20;;;;;;;8.75;96.76;100968.63;5006046;28;20241;-52
2022/04/21 07:24:40;;;;;;;7.53;5.37;;;;;;;8.76;96.35;100971.25;5025562;28;20239;-52
2022/04/21 07:27:07;;;;;;;6.13;4.40;;;;;;;8.73;95.96;100972.97;5024376;28;20240;-53
2022/04/21 07:29:35;;;;;;;9.63;4.77;;;;;;;8.89;96.13;100968.78;5024698;28;20249;-52
2022/04/21 07:32:01;;;;;;;8.50;6.27;;;;;;;8.76;95.33;100975.63;5025901;28;20232;-52
2022/04/21 07:34:29;;;;;;;8.17;4.87;;;;;;;8.58;96.03;100974.56;5026009;28;20243;-54
2022/04/21 07:36:55;;;;;;;6.07;5.00;;;;;;;8.74;96.57;100975.63;5026016;28;20249;-54
2022/04/21 07:39:22;;;;;;;8.00;4.37;;;;;;;9.01;95.77;100988.09;5025793;28;20248;-52
2022/04/21 07:41:48;;;;;;;4.83;4.30;;;;;;;9.11;94.82;100980.31;5026845;28;20314;-53
2022/04/21 07:44:15;;;;;;;6.03;4.67;;;;;;;9.02;93.38;100983.72;5025916;28;20626;-53
2022/04/21 07:46:41;;;;;;;8.23;4.77;;;;;;;9.04;93.92;100985.50;5026235;28;20294;-53
2022/04/21 07:53:12;;;;;;;8.70;6.10;;;;;;;8.91;95.14;100973.16;5026326;28;20324;-53
2022/04/21 07:54:39;;;;;;;6.83;4.53;;;;;;;9.10;94.78;100978.56;5026290;28;20240;-54
2022/04/21 07:57:05;;;;;;;5.23;4.47;;;;;;;9.03;95.05;100983.75;5026009;28;20659;-53
2022/04/21 07:59:32;;;;;;;8.07;3.80;;;;;;;9.14;94.93;100985.59;5025012;28;20228;-53
2022/04/21 08:01:58;;;;;;;4.93;3.87;;;;;;;9.12;95.15;100987.31;5024861;28;20256;-53
2022/04/21 08:04:24;;;;;;;7.83;4.57;;;;;;;9.11;94.66;100996.03;5025116;28;20282;-53
2022/04/21 08:06:54;;;;;;;8.37;5.17;;;;;;;9.02;95.66;100989.84;5008071;28;20237;-53
2022/04/21 08:09:21;;;;;;;7.97;4.50;;;;;;;9.00;95.70;100983.72;5010125;28;20242;-53
2022/04/21 08:11:47;;;;;;;6.43;4.73;;;;;;;9.06;95.35;100986.41;5024833;28;20283;-53
2022/04/21 08:14:16;;;;;;;10.23;4.37;;;;;;;9.27;94.63;100990.09;5022380;28;20258;-53
2022/04/21 08:16:42;;;;;;;7.90;5.33;;;;;;;9.25;94.61;100986.56;5021627;28;20710;-53
2022/04/21 08:19:09;;;;;;;5.10;4.57;;;;;;;9.27;94.65;100992.69;5024275;28;20270;-53
2022/04/21 08:21:36;;;;;;;11.17;5.87;;;;;;;9.27;93.63;100992.69;5024950;28;20706;-52
2022/04/21 08:32:41;;;;;;;11.00;7.33;;;;;;;9.36;95.42;100999.75;5024714;28;20327;-53
2022/04/21 08:35:09;;;;;;;10.50;5.33;;;;;;;9.50;95.88;101004.22;5024480;28;20225;-55
2022/04/21 08:37:35;;;;;;;9.93;5.97;;;;;;;9.51;96.24;101003.38;5025179;28;20319;-56
2022/04/21 08:40:06;;;;;;;10.40;6.47;;;;;;;9.70;95.22;101008.75;5024640;28;20294;-54
2022/04/21 08:42:36;;;;;;;7.47;5.63;;;;;;;9.76;95.05;101003.56;5025252;28;20241;-53
2022/04/21 08:45:04;;;;;;;7.77;6.10;;;;;;;9.62;98.37;101006.06;5025364;28;20232;-54
2022/04/21 08:47:31;;;;;;;9.47;7.80;;;;;;;9.52;99.81;101010.38;5024888;28;20247;-54
2022/04/21 08:50:00;;;;;;;8.33;7.20;;;;;;;9.51;100.00;101006.00;5024437;28;20643;-53
2022/04/21 08:52:29;;;;;;;11.17;7.40;;;;;;;9.46;100.00;101015.56;5005487;28;20415;-53
2022/04/21 08:54:55;;;;;;;9.80;8.10;;;;;;;9.64;100.00;101006.94;5011548;28;20251;-54
2022/04/21 08:57:23;;;;;;;10.67;6.47;;;;;;;9.60;100.00;100999.06;5023658;28;20228;-54
2022/04/21 08:59:49;;;;;;;10.20;7.60;;;;;;;9.56;100.00;101004.28;5017301;28;20272;-54
2022/04/21 09:02:16;;;;;;;13.33;8.53;;;;;;;9.59;100.00;101000.81;5009432;28;20257;-53
2022/04/21 09:04:42;;;;;;;9.77;7.07;;;;;;;9.53;100.00;101001.63;5025865;28;20640;-54
2022/04/21 09:07:14;;;;;;;10.73;8.50;;;;;;;9.67;100.00;101003.47;5026281;28;20703;-55
2022/04/21 09:09:40;;;;;;;6.43;5.83;;;;;;;9.74;100.00;101000.03;5029132;28;20232;-54
2022/04/21 09:12:08;;;;;;;5.77;5.10;;;;;;;9.79;100.00;100995.69;5028150;28;20240;-53
2022/04/21 09:14:36;;;;;;;6.20;5.57;;;;;;;9.85;100.00;100995.72;5027525;28;20233;-52
2022/04/21 09:17:05;;;;;;;6.23;5.50;;;;;;;9.85;100.00;100993.09;5028111;28;20241;-54
2022/04/21 09:19:31;;;;;;;7.77;4.63;;;;;;;9.94;100.00;100993.16;5027315;28;20740;-55
2022/04/21 09:21:59;;;;;;;9.40;5.87;;;;;;;10.07;100.00;100998.47;5028368;28;20244;-54
2022/04/21 09:24:28;;;;;;;6.23;4.40;;;;;;;10.36;97.36;100991.66;5028353;28;20228;-53
2022/04/21 09:26:57;;;;;;;9.57;5.33;;;;;;;10.45;96.91;100981.19;5028451;28;20236;-54
2022/04/21 09:29:25;;;;;;;10.37;5.90;;;;;;;10.59;97.21;100988.22;5027098;28;20239;-53
2022/04/21 09:31:57;;;;;;;11.67;6.30;;;;;;;10.57;98.36;100984.75;5027308;28;20264;-54
2022/04/21 09:34:24;;;;;;;8.13;5.73;;;;;;;10.63;98.56;100995.22;5027589;28;20232;-53
2022/04/21 09:36:50;;;;;;;7.27;6.47;;;;;;;10.71;97.46;100996.16;5027778;28;20303;-54
2022/04/21 09:39:16;;;;;;;9.63;6.13;;;;;;;10.88;96.33;100989.19;5027112;28;20703;-52
2022/04/21 09:41:44;;;;;;;7.83;4.97;;;;;;;10.81;95.52;100992.69;5028934;28;20291;-54
2022/04/21 09:46:52;;;;;;;6.50;5.43;;;;;;;10.67;97.08;101003.16;5025873;28;20256;-54
2022/04/21 09:49:36;;;;;;;8.27;5.57;;;;;;;10.57;96.96;101000.50;5026660;28;20264;-53
2022/04/21 09:52:03;;;;;;;6.80;5.90;;;;;;;10.59;97.16;100999.59;5026779;28;20228;-53
2022/04/21 09:54:29;;;;;;;8.80;6.43;;;;;;;10.48;96.30;101002.19;5026384;28;20232;-53
2022/04/21 09:56:57;;;;;;;6.73;5.20;;;;;;;10.50;95.90;101005.72;5027241;28;20295;-54
2022/04/21 09:59:24;;;;;;;9.97;5.13;;;;;;;10.54;96.08;101005.72;5022120;28;20248;-54
2022/04/21 10:01:50;;;;;;;11.97;6.27;;;;;;;10.44;96.91;101005.69;5027755;28;20263;-52
2022/04/21 10:04:18;;;;;;;6.97;5.57;;;;;;;10.45;97.25;101006.56;5027172;28;20614;-54
2022/04/21 10:06:47;;;;;;;10.40;5.97;;;;;;;10.52;95.20;101003.94;5026466;28;20244;-54
2022/04/21 10:09:16;;;;;;;6.70;5.80;;;;;;;10.58;94.64;101002.22;5026444;28;20252;-52
2022/04/21 10:11:43;;;;;;;9.40;7.13;;;;;;;10.68;92.61;101010.13;5026858;28;20237;-53
2022/04/21 10:14:12;;;;;;;10.70;9.50;;;;;;;10.69;92.77;101005.75;5025155;28;20312;-52
2022/04/21 10:16:42;;;;;;;12.55;8.38;;;;;;;10.74;92.32;101014.53;5024515;28;20244;-52
2022/04/21 10:19:10;;;;;;;14.20;8.07;;;;;;;10.78;92.07;101010.19;5025131;28;20277;-53
2022/04/21 10:21:39;;;;;;;12.50;10.27;;;;;;;10.73;91.57;101007.53;5026916;28;20232;-54
2022/04/21 10:24:07;;;;;;;16.97;10.97;;;;;;;10.70;92.63;101008.38;5026508;28;20261;-54
2022/04/21 10:26:36;;;;;;;12.03;10.60;;;;;;;10.63;92.54;101005.72;5027005;28;20596;-54
2022/04/21 10:29:10;;;;;;;10.00;8.90;;;;;;;10.66;92.13;101009.25;5025672;28;20283;-53
2022/04/21 10:31:46;;;;;;;10.07;9.07;;;;;;;10.69;92.25;101011.88;5026787;28;20232;-53
2022/04/21 10:34:27;;;;;;;9.77;8.30;;;;;;;10.74;92.32;101009.28;5027357;28;20349;-54
2022/04/21 10:37:06;;;;;;;10.13;8.30;;;;;;;10.79;91.61;101006.66;5026881;28;20267;-53
2022/04/21 10:39:34;;;;;;;11.57;8.20;;;;;;;10.86;91.00;101009.31;5026244;28;20243;-53
2022/04/21 10:42:11;;;;;;;12.10;8.40;;;;;;;10.79;90.59;101006.66;5025786;28;20236;-54
2022/04/21 10:44:42;;;;;;;8.70;7.13;;;;;;;10.79;91.82;101011.91;5026436;28;20432;-53
2022/04/21 10:47:35;;;;;;;8.97;7.07;;;;;;;10.84;92.07;101004.91;5026262;28;20832;-53
2022/04/21 10:50:03;;;;;;;8.67;7.43;;;;;;;10.91;90.71;101002.31;5024565;28;20224;-54
2022/04/21 10:58:47;;;;;;;8.50;7.70;;;;;;;11.15;88.00;101009.34;5021550;28;20679;-53
2022/04/21 11:01:15;;;;;;;8.88;7.97;;;;;;;11.01;89.13;100999.69;5026476;28;20236;-53
2022/04/21 11:03:42;;;;;;;8.77;7.70;;;;;;;11.03;88.93;101006.72;5025332;28;20244;-52
2022/04/21 11:06:10;;;;;;;8.67;7.47;;;;;;;11.01;89.25;100997.06;5025334;28;20267;-53
2022/04/21 11:08:37;;;;;;;9.83;8.83;;;;;;;11.04;89.15;101012.84;5025171;28;20236;-53
2022/04/21 11:11:05;;;;;;;9.27;8.20;;;;;;;11.01;89.51;101002.31;5025710;28;20241;-53
2022/04/21 11:13:42;;;;;;;11.13;7.73;;;;;;;11.15;88.93;101003.22;5025291;28;20236;-52
2022/04/21 11:16:09;;;;;;;12.60;9.50;;;;;;;11.23;88.99;100993.56;5025149;28;20733;-53
2022/04/21 11:18:35;;;;;;;13.20;12.00;;;;;;;11.30;88.85;101000.63;5025014;28;20236;-54
2022/04/21 11:21:21;;;;;;;8.67;7.73;;;;;;;11.54;86.63;101001.47;5025025;28;20232;-53
2022/04/21 11:24:01;;;;;;;10.33;9.23;;;;;;;11.59;86.31;100999.72;5022050;28;20658;-54
2022/04/21 11:26:29;;;;;;;10.27;9.27;;;;;;;11.65;86.96;100997.06;5026057;28;20236;-53
2022/04/21 11:29:02;;;;;;;8.37;7.47;;;;;;;11.63;86.00;100993.59;5023484;28;20232;-53
2022/04/21 11:31:28;;;;;;;8.43;6.75;;;;;;;11.67;85.65;100995.31;5024215;28;20232;-53
2022/04/21 11:34:00;;;;;;;11.63;8.07;;;;;;;11.63;85.60;100998.84;5025570;28;20240;-52
2022/04/21 11:36:35;;;;;;;9.70;7.70;;;;;;;11.77;85.33;100996.19;5024398;28;20233;-53
2022/04/21 11:39:06;;;;;;;9.25;7.45;;;;;;;11.82;84.47;100989.16;5022299;28;20240;-53
2022/04/21 11:41:34;;;;;;;8.30;7.40;;;;;;;11.88;84.39;100989.19;5025182;28;20233;-53
2022/04/21 11:44:01;;;;;;;9.77;8.82;;;;;;;11.70;84.74;100990.06;5023434;28;20739;-53
2022/04/21 11:46:27;;;;;;;11.45;7.10;;;;;;;11.77;84.87;100985.69;5024750;28;20263;-52
2022/04/21 11:48:58;;;;;;;9.77;7.15;;;;;;;11.87;84.41;100993.56;5021643;28;20241;-53
2022/04/21 11:51:25;;;;;;;8.05;7.25;;;;;;;11.88;84.28;100984.81;5025491;28;20617;-54
2022/04/21 11:53:52;;;;;;;7.38;6.68;;;;;;;11.86;83.99;100985.66;5024737;28;20246;-53
2022/04/21 11:56:21;;;;;;;8.32;7.53;;;;;;;11.88;83.58;100991.81;5024509;28;20523;-53
2022/04/21 11:58:49;;;;;;;8.80;7.93;;;;;;;11.86;83.76;100989.22;5023872;28;20252;-54
2022/04/21 12:06:46;;;;;;;7.05;6.45;;;;;;;11.70;85.27;100987.44;5025355;28;20247;-54
2022/04/21 12:09:14;;;;;;;7.27;6.67;;;;;;;11.64;86.11;100984.81;5025285;28;20229;-56
2022/04/21 12:11:41;;;;;;;10.70;6.03;;;;;;;11.61;86.66;100980.41;5024947;28;20268;-53
2022/04/21 12:14:09;;;;;;;11.43;7.47;;;;;;;11.64;87.67;100988.31;5023885;28;20229;-52
2022/04/21 12:16:41;;;;;;;7.13;6.40;;;;;;;11.67;86.97;100988.31;5025347;28;20617;-53
2022/04/21 12:19:18;;;;;;;12.13;8.80;;;;;;;11.67;88.04;100987.44;5024501;28;20241;-53
2022/04/21 12:21:46;;;;;;;8.95;8.05;;;;;;;11.68;87.17;100981.28;5026004;28;20663;-54
2022/04/21 12:24:15;;;;;;;7.63;6.83;;;;;;;11.84;86.98;100985.69;5025032;28;20282;-52